Paradise Inn, Washington
Current Conditions -  °F | °C
As of 3:48 AM on Friday 31 Oct 2014 (Local Time) from KTCM Reporting Station
Light Rain Light Rain  
Wind Chill: 50°   Ceiling: 700
Heat Index: 50°   Visibility: 7mi
Dew Point: 50°   Wind: 0mph
Humidity: 100%   Direction: NA
Pressure: 29.74"   Gusts: NA
Location:  47.16°N, 122.57°W
Report Text: KTCM 311048Z AUTO 00000KT 7SM -RA BKN007 BKN015 OVC044 10/10 A2974 RMK AO2 RAE1020B1039DZB1001E1004 CIG 005V009 $
Loading
Personal Weather Stations






























Interactive Weather Map
Tropical Storm Tracking
New forecast layout! Learn more

10-Day Weather Forecast

Advertisements
Track Severe Weather on mobile